sensor_id;sensor_type;location;lat;lon;timestamp;temperature;humidity
14769;DHT22;7476;49.404;11.152;2024-02-21T00:02:22;6.30;99.90
14769;DHT22;7476;49.404;11.152;2024-02-21T00:04:49;6.30;1.00
14769;DHT22;7476;49.404;11.152;2024-02-21T00:07:15;6.30;1.00
14769;DHT22;7476;49.404;11.152;2024-02-21T00:09:43;6.30;99.90
14769;DHT22;7476;49.404;11.152;2024-02-21T00:12:10;6.30;1.00
14769;DHT22;7476;49.404;11.152;2024-02-21T00:14:39;6.20;1.00
14769;DHT22;7476;49.404;11.152;2024-02-21T00:17:06;6.30;1.00
14769;DHT22;7476;49.404;11.152;2024-02-21T00:19:33;6.20;1.00
14769;DHT22;7476;49.404;11.152;2024-02-21T00:22:00;6.20;1.00
14769;DHT22;7476;49.404;11.152;2024-02-21T00:24:27;6.20;1.00
14769;DHT22;7476;49.404;11.152;2024-02-21T00:26:55;6.10;1.00
14769;DHT22;7476;49.404;11.152;2024-02-21T00:29:21;6.20;1.00
14769;DHT22;7476;49.404;11.152;2024-02-21T00:31:49;6.30;1.00
14769;DHT22;7476;49.404;11.152;2024-02-21T00:34:16;6.30;1.00
14769;DHT22;7476;49.404;11.152;2024-02-21T00:36:42;6.30;1.00
14769;DHT22;7476;49.404;11.152;2024-02-21T00:39:09;6.30;1.00
14769;DHT22;7476;49.404;11.152;2024-02-21T00:41:36;6.30;1.00
14769;DHT22;7476;49.404;11.152;2024-02-21T00:44:04;6.40;1.00
14769;DHT22;7476;49.404;11.152;2024-02-21T00:46:31;6.40;1.00
14769;DHT22;7476;49.404;11.152;2024-02-21T00:48:58;6.40;1.00
14769;DHT22;7476;49.404;11.152;2024-02-21T00:51:24;6.40;1.00
14769;DHT22;7476;49.404;11.152;2024-02-21T00:53:51;6.40;1.00
14769;DHT22;7476;49.404;11.152;2024-02-21T00:56:18;6.40;1.00
14769;DHT22;7476;49.404;11.152;2024-02-21T00:58:44;6.40;1.00
14769;DHT22;7476;49.404;11.152;2024-02-21T01:01:12;6.40;1.00
14769;DHT22;7476;49.404;11.152;2024-02-21T01:03:39;6.40;1.00
14769;DHT22;7476;49.404;11.152;2024-02-21T01:06:06;6.40;1.00
14769;DHT22;7476;49.404;11.152;2024-02-21T01:08:33;6.40;1.00
14769;DHT22;7476;49.404;11.152;2024-02-21T01:10:59;6.50;1.00
14769;DHT22;7476;49.404;11.152;2024-02-21T01:13:26;6.50;1.00
14769;DHT22;7476;49.404;11.152;2024-02-21T01:15:53;6.50;99.90
14769;DHT22;7476;49.404;11.152;2024-02-21T01:18:21;6.40;1.00
14769;DHT22;7476;49.404;11.152;2024-02-21T01:20:47;6.50;99.90
14769;DHT22;7476;49.404;11.152;2024-02-21T01:23:14;6.50;99.90
14769;DHT22;7476;49.404;11.152;2024-02-21T01:25:40;6.50;99.90
14769;DHT22;7476;49.404;11.152;2024-02-21T01:28:08;6.50;99.90
14769;DHT22;7476;49.404;11.152;2024-02-21T01:30:35;6.50;99.90
14769;DHT22;7476;49.404;11.152;2024-02-21T01:33:01;6.40;1.00
14769;DHT22;7476;49.404;11.152;2024-02-21T01:35:29;6.40;1.00
14769;DHT22;7476;49.404;11.152;2024-02-21T01:37:56;6.40;1.00
14769;DHT22;7476;49.404;11.152;2024-02-21T01:40:22;6.40;1.00
14769;DHT22;7476;49.404;11.152;2024-02-21T01:42:49;6.40;1.00
14769;DHT22;7476;49.404;11.152;2024-02-21T01:45:16;6.30;1.00
14769;DHT22;7476;49.404;11.152;2024-02-21T01:47:43;6.30;1.00
14769;DHT22;7476;49.404;11.152;2024-02-21T01:50:10;6.30;1.00
14769;DHT22;7476;49.404;11.152;2024-02-21T01:52:38;6.40;1.00
14769;DHT22;7476;49.404;11.152;2024-02-21T01:55:06;6.40;1.00
14769;DHT22;7476;49.404;11.152;2024-02-21T01:57:33;6.40;1.00
14769;DHT22;7476;49.404;11.152;2024-02-21T02:00:00;6.40;1.00
14769;DHT22;7476;49.404;11.152;2024-02-21T02:02:27;6.30;1.00
14769;DHT22;7476;49.404;11.152;2024-02-21T02:04:54;6.30;1.00
14769;DHT22;7476;49.404;11.152;2024-02-21T02:07:21;6.30;1.00
14769;DHT22;7476;49.404;11.152;2024-02-21T02:09:49;6.30;1.00
14769;DHT22;7476;49.404;11.152;2024-02-21T02:12:15;6.30;1.00
14769;DHT22;7476;49.404;11.152;2024-02-21T02:14:42;6.30;1.00
14769;DHT22;7476;49.404;11.152;2024-02-21T02:17:09;6.40;1.00
14769;DHT22;7476;49.404;11.152;2024-02-21T02:19:35;6.40;1.00
14769;DHT22;7476;49.404;11.152;2024-02-21T02:22:10;6.30;1.00
14769;DHT22;7476;49.404;11.152;2024-02-21T02:24:42;6.30;1.00
14769;DHT22;7476;49.404;11.152;2024-02-21T02:27:09;6.40;1.00
14769;DHT22;7476;49.404;11.152;2024-02-21T02:29:35;6.40;1.00
14769;DHT22;7476;49.404;11.152;2024-02-21T02:32:02;6.40;1.00
14769;DHT22;7476;49.404;11.152;2024-02-21T02:34:29;6.50;1.00
14769;DHT22;7476;49.404;11.152;2024-02-21T02:36:56;6.50;1.00
14769;DHT22;7476;49.404;11.152;2024-02-21T02:39:22;6.50;1.00
14769;DHT22;7476;49.404;11.152;2024-02-21T02:41:50;6.50;1.00
14769;DHT22;7476;49.404;11.152;2024-02-21T02:44:17;6.50;1.00
14769;DHT22;7476;49.404;11.152;2024-02-21T02:46:43;6.50;1.00
14769;DHT22;7476;49.404;11.152;2024-02-21T02:49:10;6.50;1.00
14769;DHT22;7476;49.404;11.152;2024-02-21T02:51:40;6.50;1.00
14769;DHT22;7476;49.404;11.152;2024-02-21T02:54:07;6.50;1.00
14769;DHT22;7476;49.404;11.152;2024-02-21T02:56:34;6.50;1.00
14769;DHT22;7476;49.404;11.152;2024-02-21T02:59:01;6.40;1.00
14769;DHT22;7476;49.404;11.152;2024-02-21T03:01:28;6.30;1.00
14769;DHT22;7476;49.404;11.152;2024-02-21T03:03:55;6.20;1.00
14769;DHT22;7476;49.404;11.152;2024-02-21T03:06:22;6.00;1.00
14769;DHT22;7476;49.404;11.152;2024-02-21T03:08:48;6.00;1.00
14769;DHT22;7476;49.404;11.152;2024-02-21T03:11:15;6.10;1.00
14769;DHT22;7476;49.404;11.152;2024-02-21T03:13:42;6.00;1.00
14769;DHT22;7476;49.404;11.152;2024-02-21T03:16:10;5.90;1.00
14769;DHT22;7476;49.404;11.152;2024-02-21T03:18:37;6.00;1.00
14769;DHT22;7476;49.404;11.152;2024-02-21T03:21:03;6.00;1.00
14769;DHT22;7476;49.404;11.152;2024-02-21T03:23:30;6.00;1.00
14769;DHT22;7476;49.404;11.152;2024-02-21T03:25:57;6.10;1.00
14769;DHT22;7476;49.404;11.152;2024-02-21T03:28:23;6.10;1.00
14769;DHT22;7476;49.404;11.152;2024-02-21T03:30:50;6.10;1.00
14769;DHT22;7476;49.404;11.152;2024-02-21T03:33:18;6.10;1.00
14769;DHT22;7476;49.404;11.152;2024-02-21T03:35:46;6.00;1.00
14769;DHT22;7476;49.404;11.152;2024-02-21T03:38:13;5.90;1.00
14769;DHT22;7476;49.404;11.152;2024-02-21T03:40:39;5.90;35.60
14769;DHT22;7476;49.404;11.152;2024-02-21T03:43:06;5.90;49.40
14769;DHT22;7476;49.404;11.152;2024-02-21T03:45:32;5.80;60.00
14769;DHT22;7476;49.404;11.152;2024-02-21T03:47:59;5.90;99.90
14769;DHT22;7476;49.404;11.152;2024-02-21T03:50:27;5.80;99.90
14769;DHT22;7476;49.404;11.152;2024-02-21T03:52:54;5.70;99.90
14769;DHT22;7476;49.404;11.152;2024-02-21T03:55:21;5.60;99.90
14769;DHT22;7476;49.404;11.152;2024-02-21T03:57:48;5.70;99.90
14769;DHT22;7476;49.404;11.152;2024-02-21T04:00:15;5.80;99.90
14769;DHT22;7476;49.404;11.152;2024-02-21T04:02:42;5.90;99.90
14769;DHT22;7476;49.404;11.152;2024-02-21T04:05:09;6.00;99.90
14769;DHT22;7476;49.404;11.152;2024-02-21T04:07:38;6.00;99.90
14769;DHT22;7476;49.404;11.152;2024-02-21T04:10:06;6.10;95.90
14769;DHT22;7476;49.404;11.152;2024-02-21T04:12:33;6.10;65.10
14769;DHT22;7476;49.404;11.152;2024-02-21T04:14:59;6.20;40.60
14769;DHT22;7476;49.404;11.152;2024-02-21T04:17:26;6.20;44.10
14769;DHT22;7476;49.404;11.152;2024-02-21T04:20:02;6.30;45.70
14769;DHT22;7476;49.404;11.152;2024-02-21T04:22:30;6.30;33.00
14769;DHT22;7476;49.404;11.152;2024-02-21T04:24:59;6.30;27.00
14769;DHT22;7476;49.404;11.152;2024-02-21T04:27:26;6.40;26.30
14769;DHT22;7476;49.404;11.152;2024-02-21T04:29:53;6.40;12.70
14769;DHT22;7476;49.404;11.152;2024-02-21T04:32:19;6.30;34.50
14769;DHT22;7476;49.404;11.152;2024-02-21T04:34:46;6.30;62.20
14769;DHT22;7476;49.404;11.152;2024-02-21T04:37:13;6.40;48.00
14769;DHT22;7476;49.404;11.152;2024-02-21T04:39:39;6.40;34.90
14769;DHT22;7476;49.404;11.152;2024-02-21T04:42:07;6.30;66.80
14769;DHT22;7476;49.404;11.152;2024-02-21T04:44:34;6.30;73.80
14769;DHT22;7476;49.404;11.152;2024-02-21T04:47:01;6.20;99.90
14769;DHT22;7476;49.404;11.152;2024-02-21T04:49:28;6.20;99.90
14769;DHT22;7476;49.404;11.152;2024-02-21T04:51:55;6.20;99.90
14769;DHT22;7476;49.404;11.152;2024-02-21T04:54:22;6.20;99.90
14769;DHT22;7476;49.404;11.152;2024-02-21T04:56:48;6.10;99.90
14769;DHT22;7476;49.404;11.152;2024-02-21T04:59:16;6.10;99.90
14769;DHT22;7476;49.404;11.152;2024-02-21T05:01:43;6.10;99.90
14769;DHT22;7476;49.404;11.152;2024-02-21T05:04:10;5.90;99.90
14769;DHT22;7476;49.404;11.152;2024-02-21T05:06:37;5.90;99.90
14769;DHT22;7476;49.404;11.152;2024-02-21T05:09:04;5.90;99.90
14769;DHT22;7476;49.404;11.152;2024-02-21T05:11:31;5.80;99.90
14769;DHT22;7476;49.404;11.152;2024-02-21T05:13:57;5.90;99.90
14769;DHT22;7476;49.404;11.152;2024-02-21T05:16:25;5.90;99.90
14769;DHT22;7476;49.404;11.152;2024-02-21T05:18:52;5.80;99.90
14769;DHT22;7476;49.404;11.152;2024-02-21T05:21:19;5.80;99.90
14769;DHT22;7476;49.404;11.152;2024-02-21T05:23:45;5.70;99.90
14769;DHT22;7476;49.404;11.152;2024-02-21T05:26:20;5.60;99.90
14769;DHT22;7476;49.404;11.152;2024-02-21T05:28:47;5.60;99.90
14769;DHT22;7476;49.404;11.152;2024-02-21T05:31:14;5.50;99.90
14769;DHT22;7476;49.404;11.152;2024-02-21T05:33:42;5.40;99.90
14769;DHT22;7476;49.404;11.152;2024-02-21T05:36:09;5.30;99.90
14769;DHT22;7476;49.404;11.152;2024-02-21T05:38:35;5.20;99.90
14769;DHT22;7476;49.404;11.152;2024-02-21T05:41:03;5.10;99.90
14769;DHT22;7476;49.404;11.152;2024-02-21T05:43:30;4.90;99.90
14769;DHT22;7476;49.404;11.152;2024-02-21T05:45:57;4.90;99.90
14769;DHT22;7476;49.404;11.152;2024-02-21T05:48:23;4.90;99.90
14769;DHT22;7476;49.404;11.152;2024-02-21T05:50:51;4.90;99.90
14769;DHT22;7476;49.404;11.152;2024-02-21T05:53:18;4.80;99.90
14769;DHT22;7476;49.404;11.152;2024-02-21T05:55:45;4.70;99.90
14769;DHT22;7476;49.404;11.152;2024-02-21T05:58:11;4.60;99.90
14769;DHT22;7476;49.404;11.152;2024-02-21T06:00:39;4.50;99.90
14769;DHT22;7476;49.404;11.152;2024-02-21T06:03:06;4.50;99.90
14769;DHT22;7476;49.404;11.152;2024-02-21T06:05:36;4.50;99.90
14769;DHT22;7476;49.404;11.152;2024-02-21T06:08:05;4.50;99.90
14769;DHT22;7476;49.404;11.152;2024-02-21T06:10:32;4.40;99.90
14769;DHT22;7476;49.404;11.152;2024-02-21T06:12:59;4.20;99.90
14769;DHT22;7476;49.404;11.152;2024-02-21T06:15:25;4.00;99.90
14769;DHT22;7476;49.404;11.152;2024-02-21T06:17:52;3.90;99.90
14769;DHT22;7476;49.404;11.152;2024-02-21T06:20:18;3.70;99.90
14769;DHT22;7476;49.404;11.152;2024-02-21T06:22:45;3.60;99.90
14769;DHT22;7476;49.404;11.152;2024-02-21T06:25:13;3.50;99.90
14769;DHT22;7476;49.404;11.152;2024-02-21T06:27:39;3.40;99.90
14769;DHT22;7476;49.404;11.152;2024-02-21T06:30:08;3.30;99.90
14769;DHT22;7476;49.404;11.152;2024-02-21T06:32:35;3.20;99.90
14769;DHT22;7476;49.404;11.152;2024-02-21T06:35:01;3.10;99.90
14769;DHT22;7476;49.404;11.152;2024-02-21T06:37:28;3.20;99.90
14769;DHT22;7476;49.404;11.152;2024-02-21T06:39:55;3.40;99.90
14769;DHT22;7476;49.404;11.152;2024-02-21T06:42:25;3.30;99.90
14769;DHT22;7476;49.404;11.152;2024-02-21T06:44:52;3.40;99.90
14769;DHT22;7476;49.404;11.152;2024-02-21T06:47:19;3.50;99.90
14769;DHT22;7476;49.404;11.152;2024-02-21T06:49:48;3.80;99.90
14769;DHT22;7476;49.404;11.152;2024-02-21T06:52:17;4.00;99.90
14769;DHT22;7476;49.404;11.152;2024-02-21T06:54:45;4.10;99.90
14769;DHT22;7476;49.404;11.152;2024-02-21T06:57:12;4.40;99.90
14769;DHT22;7476;49.404;11.152;2024-02-21T06:59:41;4.60;99.90
14769;DHT22;7476;49.404;11.152;2024-02-21T07:02:08;4.80;99.90
14769;DHT22;7476;49.404;11.152;2024-02-21T07:04:34;5.00;99.90
14769;DHT22;7476;49.404;11.152;2024-02-21T07:07:01;5.10;99.90
14769;DHT22;7476;49.404;11.152;2024-02-21T07:09:28;5.20;99.90
14769;DHT22;7476;49.404;11.152;2024-02-21T07:11:57;5.20;99.90
14769;DHT22;7476;49.404;11.152;2024-02-21T07:14:24;5.10;99.90
14769;DHT22;7476;49.404;11.152;2024-02-21T07:16:52;5.00;99.90
14769;DHT22;7476;49.404;11.152;2024-02-21T07:19:18;5.00;99.90
14769;DHT22;7476;49.404;11.152;2024-02-21T07:21:45;5.00;99.90
14769;DHT22;7476;49.404;11.152;2024-02-21T07:24:12;5.00;99.90
14769;DHT22;7476;49.404;11.152;2024-02-21T07:26:41;5.00;99.90
14769;DHT22;7476;49.404;11.152;2024-02-21T07:29:08;5.20;99.90
14769;DHT22;7476;49.404;11.152;2024-02-21T07:31:40;5.70;99.90
14769;DHT22;7476;49.404;11.152;2024-02-21T07:34:08;6.20;99.90
14769;DHT22;7476;49.404;11.152;2024-02-21T07:36:35;6.70;99.90
14769;DHT22;7476;49.404;11.152;2024-02-21T07:39:02;7.10;99.90
14769;DHT22;7476;49.404;11.152;2024-02-21T07:41:30;7.30;99.90
14769;DHT22;7476;49.404;11.152;2024-02-21T07:43:56;7.70;99.90
14769;DHT22;7476;49.404;11.152;2024-02-21T07:46:23;8.20;99.90
14769;DHT22;7476;49.404;11.152;2024-02-21T07:48:50;8.60;1.00
14769;DHT22;7476;49.404;11.152;2024-02-21T07:51:18;8.90;1.00
14769;DHT22;7476;49.404;11.152;2024-02-21T07:53:45;9.30;1.00
14769;DHT22;7476;49.404;11.152;2024-02-21T07:56:13;9.60;1.00
14769;DHT22;7476;49.404;11.152;2024-02-21T07:58:40;10.00;1.00
14769;DHT22;7476;49.404;11.152;2024-02-21T08:01:07;10.40;1.00
14769;DHT22;7476;49.404;11.152;2024-02-21T08:03:34;10.60;99.90
14769;DHT22;7476;49.404;11.152;2024-02-21T08:06:01;10.50;99.90
14769;DHT22;7476;49.404;11.152;2024-02-21T08:08:30;10.00;99.90
14769;DHT22;7476;49.404;11.152;2024-02-21T08:10:57;9.80;1.00
14769;DHT22;7476;49.404;11.152;2024-02-21T08:13:24;9.80;99.90
14769;DHT22;7476;49.404;11.152;2024-02-21T08:15:51;9.80;99.90
14769;DHT22;7476;49.404;11.152;2024-02-21T08:18:17;9.70;99.90
14769;DHT22;7476;49.404;11.152;2024-02-21T08:20:44;9.60;99.90
14769;DHT22;7476;49.404;11.152;2024-02-21T08:23:10;9.50;99.90
14769;DHT22;7476;49.404;11.152;2024-02-21T08:25:38;9.40;99.90
14769;DHT22;7476;49.404;11.152;2024-02-21T08:28:05;9.70;99.90
14769;DHT22;7476;49.404;11.152;2024-02-21T08:30:33;10.10;1.00
14769;DHT22;7476;49.404;11.152;2024-02-21T08:32:59;10.30;1.00
14769;DHT22;7476;49.404;11.152;2024-02-21T08:35:26;10.60;1.00
14769;DHT22;7476;49.404;11.152;2024-02-21T08:37:53;11.00;54.10
14769;DHT22;7476;49.404;11.152;2024-02-21T08:40:19;11.40;1.00
14769;DHT22;7476;49.404;11.152;2024-02-21T08:42:48;11.80;99.90
14769;DHT22;7476;49.404;11.152;2024-02-21T08:45:15;11.80;1.00
14769;DHT22;7476;49.404;11.152;2024-02-21T08:47:42;11.40;99.90
14769;DHT22;7476;49.404;11.152;2024-02-21T08:50:10;11.20;99.90
14769;DHT22;7476;49.404;11.152;2024-02-21T08:52:37;11.20;99.90
14769;DHT22;7476;49.404;11.152;2024-02-21T08:55:04;11.30;99.90
14769;DHT22;7476;49.404;11.152;2024-02-21T08:57:31;11.30;1.00
14769;DHT22;7476;49.404;11.152;2024-02-21T09:00:04;11.20;1.00
14769;DHT22;7476;49.404;11.152;2024-02-21T09:02:35;10.80;99.90
14769;DHT22;7476;49.404;11.152;2024-02-21T09:05:02;10.50;99.90
14769;DHT22;7476;49.404;11.152;2024-02-21T09:07:30;10.20;99.90
14769;DHT22;7476;49.404;11.152;2024-02-21T09:09:57;10.00;1.00
14769;DHT22;7476;49.404;11.152;2024-02-21T09:12:23;9.80;1.00
14769;DHT22;7476;49.404;11.152;2024-02-21T09:14:50;9.70;1.00
14769;DHT22;7476;49.404;11.152;2024-02-21T09:17:18;9.70;1.00
14769;DHT22;7476;49.404;11.152;2024-02-21T09:19:46;9.60;1.00
14769;DHT22;7476;49.404;11.152;2024-02-21T09:22:12;9.70;99.90
14769;DHT22;7476;49.404;11.152;2024-02-21T09:24:39;9.90;99.90
14769;DHT22;7476;49.404;11.152;2024-02-21T09:27:06;10.20;1.00
14769;DHT22;7476;49.404;11.152;2024-02-21T09:29:33;10.30;1.00
14769;DHT22;7476;49.404;11.152;2024-02-21T09:31:59;10.50;1.00
14769;DHT22;7476;49.404;11.152;2024-02-21T09:34:27;10.80;99.90
14769;DHT22;7476;49.404;11.152;2024-02-21T09:36:54;11.00;99.90
14769;DHT22;7476;49.404;11.152;2024-02-21T09:39:21;11.30;1.00
14769;DHT22;7476;49.404;11.152;2024-02-21T09:41:50;11.70;1.00
14769;DHT22;7476;49.404;11.152;2024-02-21T09:44:19;11.70;1.00
14769;DHT22;7476;49.404;11.152;2024-02-21T09:46:53;11.50;1.00
14769;DHT22;7476;49.404;11.152;2024-02-21T09:49:31;11.00;1.00
14769;DHT22;7476;49.404;11.152;2024-02-21T09:52:00;10.70;1.00
14769;DHT22;7476;49.404;11.152;2024-02-21T09:54:29;10.70;1.00
14769;DHT22;7476;49.404;11.152;2024-02-21T09:56:56;10.60;1.00
14769;DHT22;7476;49.404;11.152;2024-02-21T09:59:24;10.70;1.00
14769;DHT22;7476;49.404;11.152;2024-02-21T10:01:52;10.90;1.00
14769;DHT22;7476;49.404;11.152;2024-02-21T10:04:19;11.30;1.00
14769;DHT22;7476;49.404;11.152;2024-02-21T10:06:48;11.70;1.00
14769;DHT22;7476;49.404;11.152;2024-02-21T10:09:21;11.60;1.00
14769;DHT22;7476;49.404;11.152;2024-02-21T10:11:48;11.60;1.00
14769;DHT22;7476;49.404;11.152;2024-02-21T10:14:15;11.70;1.00
14769;DHT22;7476;49.404;11.152;2024-02-21T10:16:42;11.60;1.00
14769;DHT22;7476;49.404;11.152;2024-02-21T10:19:16;11.60;1.00
14769;DHT22;7476;49.404;11.152;2024-02-21T10:21:43;11.60;1.00
14769;DHT22;7476;49.404;11.152;2024-02-21T10:24:12;11.40;1.00
14769;DHT22;7476;49.404;11.152;2024-02-21T10:26:38;11.50;1.00
14769;DHT22;7476;49.404;11.152;2024-02-21T10:29:05;11.60;1.00
14769;DHT22;7476;49.404;11.152;2024-02-21T10:31:32;11.80;1.00
14769;DHT22;7476;49.404;11.152;2024-02-21T10:34:00;12.10;1.00
14769;DHT22;7476;49.404;11.152;2024-02-21T10:36:28;12.30;1.00
14769;DHT22;7476;49.404;11.152;2024-02-21T10:38:55;12.30;1.00
14769;DHT22;7476;49.404;11.152;2024-02-21T10:41:24;12.50;1.00
14769;DHT22;7476;49.404;11.152;2024-02-21T10:43:53;12.60;99.90
14769;DHT22;7476;49.404;11.152;2024-02-21T10:46:21;12.60;99.90
14769;DHT22;7476;49.404;11.152;2024-02-21T10:48:59;12.70;99.90
14769;DHT22;7476;49.404;11.152;2024-02-21T10:51:31;13.30;99.90
14769;DHT22;7476;49.404;11.152;2024-02-21T10:54:06;13.20;99.90
14769;DHT22;7476;49.404;11.152;2024-02-21T10:56:38;13.20;99.90
14769;DHT22;7476;49.404;11.152;2024-02-21T10:59:07;13.20;99.90
14769;DHT22;7476;49.404;11.152;2024-02-21T11:01:34;13.30;99.90
14769;DHT22;7476;49.404;11.152;2024-02-21T11:04:02;13.30;99.90
14769;DHT22;7476;49.404;11.152;2024-02-21T11:06:30;13.20;99.90
14769;DHT22;7476;49.404;11.152;2024-02-21T11:09:03;13.30;99.90
14769;DHT22;7476;49.404;11.152;2024-02-21T11:11:33;13.20;99.90
14769;DHT22;7476;49.404;11.152;2024-02-21T11:14:08;13.20;99.90
14769;DHT22;7476;49.404;11.152;2024-02-21T11:16:36;13.10;99.90
14769;DHT22;7476;49.404;11.152;2024-02-21T11:19:05;13.10;99.90
14769;DHT22;7476;49.404;11.152;2024-02-21T11:21:35;13.10;99.90
14769;DHT22;7476;49.404;11.152;2024-02-21T11:24:02;13.30;99.90
14769;DHT22;7476;49.404;11.152;2024-02-21T11:26:30;13.60;99.90
14769;DHT22;7476;49.404;11.152;2024-02-21T11:28:58;13.80;99.90
14769;DHT22;7476;49.404;11.152;2024-02-21T11:31:26;13.50;99.90
14769;DHT22;7476;49.404;11.152;2024-02-21T11:33:53;13.50;99.90
14769;DHT22;7476;49.404;11.152;2024-02-21T11:36:25;13.40;99.90
14769;DHT22;7476;49.404;11.152;2024-02-21T11:38:52;13.80;99.90
14769;DHT22;7476;49.404;11.152;2024-02-21T11:41:18;13.90;99.90
14769;DHT22;7476;49.404;11.152;2024-02-21T11:43:46;14.00;99.90
14769;DHT22;7476;49.404;11.152;2024-02-21T11:46:14;14.30;99.90
14769;DHT22;7476;49.404;11.152;2024-02-21T11:48:42;15.00;99.90
14769;DHT22;7476;49.404;11.152;2024-02-21T11:51:09;15.50;99.90
14769;DHT22;7476;49.404;11.152;2024-02-21T11:53:36;15.30;99.90
14769;DHT22;7476;49.404;11.152;2024-02-21T11:56:03;15.40;99.90
14769;DHT22;7476;49.404;11.152;2024-02-21T11:58:30;15.40;96.60
14769;DHT22;7476;49.404;11.152;2024-02-21T12:00:57;15.70;99.90
14769;DHT22;7476;49.404;11.152;2024-02-21T12:03:24;15.50;84.40
14769;DHT22;7476;49.404;11.152;2024-02-21T12:05:53;15.50;90.10
14769;DHT22;7476;49.404;11.152;2024-02-21T12:08:22;15.70;84.20
14769;DHT22;7476;49.404;11.152;2024-02-21T12:10:48;16.10;85.20
14769;DHT22;7476;49.404;11.152;2024-02-21T12:13:16;15.90;63.10
14769;DHT22;7476;49.404;11.152;2024-02-21T12:15:47;15.70;65.70
14769;DHT22;7476;49.404;11.152;2024-02-21T12:18:15;16.60;75.30
14769;DHT22;7476;49.404;11.152;2024-02-21T12:20:41;17.20;51.60
14769;DHT22;7476;49.404;11.152;2024-02-21T12:23:11;17.50;19.90
14769;DHT22;7476;49.404;11.152;2024-02-21T12:25:39;17.20;7.90
14769;DHT22;7476;49.404;11.152;2024-02-21T12:28:05;17.10;16.20
14769;DHT22;7476;49.404;11.152;2024-02-21T12:30:32;17.00;7.20
14769;DHT22;7476;49.404;11.152;2024-02-21T12:33:00;16.70;1.00
14769;DHT22;7476;49.404;11.152;2024-02-21T12:35:27;16.40;1.00
14769;DHT22;7476;49.404;11.152;2024-02-21T12:37:56;16.90;1.00
14769;DHT22;7476;49.404;11.152;2024-02-21T12:40:24;17.60;1.00
14769;DHT22;7476;49.404;11.152;2024-02-21T12:42:51;17.70;1.00
14769;DHT22;7476;49.404;11.152;2024-02-21T12:45:18;17.30;1.00
14769;DHT22;7476;49.404;11.152;2024-02-21T12:47:45;17.60;1.00
14769;DHT22;7476;49.404;11.152;2024-02-21T12:50:11;17.90;1.00
14769;DHT22;7476;49.404;11.152;2024-02-21T12:52:40;17.90;1.00
14769;DHT22;7476;49.404;11.152;2024-02-21T12:55:08;18.20;1.00
14769;DHT22;7476;49.404;11.152;2024-02-21T12:57:37;18.20;1.00
14769;DHT22;7476;49.404;11.152;2024-02-21T13:00:07;18.10;1.00
14769;DHT22;7476;49.404;11.152;2024-02-21T13:02:36;17.50;1.00
14769;DHT22;7476;49.404;11.152;2024-02-21T13:05:03;16.70;1.00
14769;DHT22;7476;49.404;11.152;2024-02-21T13:07:30;16.20;1.00
14769;DHT22;7476;49.404;11.152;2024-02-21T13:09:57;15.60;1.00
14769;DHT22;7476;49.404;11.152;2024-02-21T13:12:24;14.90;1.00
14769;DHT22;7476;49.404;11.152;2024-02-21T13:14:54;14.50;1.00
14769;DHT22;7476;49.404;11.152;2024-02-21T13:17:22;14.60;1.00
14769;DHT22;7476;49.404;11.152;2024-02-21T13:19:49;15.00;1.00
14769;DHT22;7476;49.404;11.152;2024-02-21T13:22:15;15.60;1.00
14769;DHT22;7476;49.404;11.152;2024-02-21T13:24:42;16.00;1.00
14769;DHT22;7476;49.404;11.152;2024-02-21T13:27:08;15.90;1.00
14769;DHT22;7476;49.404;11.152;2024-02-21T13:29:35;15.90;1.00
14769;DHT22;7476;49.404;11.152;2024-02-21T13:32:03;15.60;1.00
14769;DHT22;7476;49.404;11.152;2024-02-21T13:34:31;15.40;1.00
14769;DHT22;7476;49.404;11.152;2024-02-21T13:36:58;15.30;1.00
14769;DHT22;7476;49.404;11.152;2024-02-21T13:39:25;15.20;1.00
14769;DHT22;7476;49.404;11.152;2024-02-21T13:41:52;14.80;1.00
14769;DHT22;7476;49.404;11.152;2024-02-21T13:44:18;14.60;1.00
14769;DHT22;7476;49.404;11.152;2024-02-21T13:46:45;14.50;1.00
14769;DHT22;7476;49.404;11.152;2024-02-21T13:49:13;14.70;1.00
14769;DHT22;7476;49.404;11.152;2024-02-21T13:51:41;14.60;1.00
14769;DHT22;7476;49.404;11.152;2024-02-21T13:54:10;14.60;1.00
14769;DHT22;7476;49.404;11.152;2024-02-21T13:56:37;14.30;1.00
14769;DHT22;7476;49.404;11.152;2024-02-21T13:59:03;14.10;1.00
14769;DHT22;7476;49.404;11.152;2024-02-21T14:01:30;14.10;1.00
14769;DHT22;7476;49.404;11.152;2024-02-21T14:03:57;14.10;1.00
14769;DHT22;7476;49.404;11.152;2024-02-21T14:06:25;14.00;1.00
14769;DHT22;7476;49.404;11.152;2024-02-21T14:08:52;14.20;1.00
14769;DHT22;7476;49.404;11.152;2024-02-21T14:11:19;14.70;1.00
14769;DHT22;7476;49.404;11.152;2024-02-21T14:13:46;15.00;1.00
14769;DHT22;7476;49.404;11.152;2024-02-21T14:16:12;15.50;1.00
14769;DHT22;7476;49.404;11.152;2024-02-21T14:18:39;16.00;1.00
14769;DHT22;7476;49.404;11.152;2024-02-21T14:21:07;16.10;1.00
14769;DHT22;7476;49.404;11.152;2024-02-21T14:23:37;16.00;1.00
14769;DHT22;7476;49.404;11.152;2024-02-21T14:26:04;15.70;1.00
14769;DHT22;7476;49.404;11.152;2024-02-21T14:28:31;15.20;1.00
14769;DHT22;7476;49.404;11.152;2024-02-21T14:30:59;14.60;1.00
14769;DHT22;7476;49.404;11.152;2024-02-21T14:33:26;14.10;1.00
14769;DHT22;7476;49.404;11.152;2024-02-21T14:35:52;13.90;1.00
14769;DHT22;7476;49.404;11.152;2024-02-21T14:38:19;13.80;1.00
14769;DHT22;7476;49.404;11.152;2024-02-21T14:40:47;13.70;1.00
14769;DHT22;7476;49.404;11.152;2024-02-21T14:43:14;13.60;1.00
14769;DHT22;7476;49.404;11.152;2024-02-21T14:45:43;13.50;1.00
14769;DHT22;7476;49.404;11.152;2024-02-21T14:48:13;13.50;1.00
14769;DHT22;7476;49.404;11.152;2024-02-21T14:50:39;13.60;1.00
14769;DHT22;7476;49.404;11.152;2024-02-21T14:53:06;13.60;1.00
14769;DHT22;7476;49.404;11.152;2024-02-21T14:55:33;13.50;1.00
14769;DHT22;7476;49.404;11.152;2024-02-21T14:58:01;13.40;1.00
14769;DHT22;7476;49.404;11.152;2024-02-21T15:00:28;13.20;1.00
14769;DHT22;7476;49.404;11.152;2024-02-21T15:02:56;13.00;1.00
14769;DHT22;7476;49.404;11.152;2024-02-21T15:05:23;12.90;1.00
14769;DHT22;7476;49.404;11.152;2024-02-21T15:07:50;12.90;1.00
14769;DHT22;7476;49.404;11.152;2024-02-21T15:10:17;12.70;1.00
14769;DHT22;7476;49.404;11.152;2024-02-21T15:12:55;12.60;1.00
14769;DHT22;7476;49.404;11.152;2024-02-21T15:15:26;12.50;1.00
14769;DHT22;7476;49.404;11.152;2024-02-21T15:17:53;12.50;1.00
14769;DHT22;7476;49.404;11.152;2024-02-21T15:20:20;12.40;1.00
14769;DHT22;7476;49.404;11.152;2024-02-21T15:22:46;12.40;1.00
14769;DHT22;7476;49.404;11.152;2024-02-21T15:25:14;12.30;1.00
14769;DHT22;7476;49.404;11.152;2024-02-21T15:27:43;12.20;1.00
14769;DHT22;7476;49.404;11.152;2024-02-21T15:30:11;12.10;1.00
14769;DHT22;7476;49.404;11.152;2024-02-21T15:32:40;12.00;1.00
14769;DHT22;7476;49.404;11.152;2024-02-21T15:35:09;12.00;1.00
14769;DHT22;7476;49.404;11.152;2024-02-21T15:37:37;11.90;1.00
14769;DHT22;7476;49.404;11.152;2024-02-21T15:40:04;11.90;1.00
14769;DHT22;7476;49.404;11.152;2024-02-21T15:42:32;11.80;13.00
14769;DHT22;7476;49.404;11.152;2024-02-21T15:44:59;11.70;10.70
14769;DHT22;7476;49.404;11.152;2024-02-21T15:47:26;11.70;6.00
14769;DHT22;7476;49.404;11.152;2024-02-21T15:49:54;11.60;9.90